SAWP/PMQ METAR and TAF weather

Enter ICAO airport designator
Station Type Date Time Source
SAWP METAR 2019/08/26 15:30 UTC NOAA

SAWP 261530Z 29027G40KT 6000 SCT018 SCT022 05/M04 Q1001


Station Type Date Time Source
SAWP Decoded METAR 2019/08/26 15:30 UTC NOAA

Perito Moreno Aerodrome, Argentina (SAWP) 46-31S 071-01W 429M
Aug 26, 2019 - 11:30 AM EDT / 2019.08.26 1530 UTC
Wind: from the WNW (290 degrees) at 31 MPH (27 KT) gusting to 46 MPH (40 KT):0
Visibility: 3 mile(s):0
Sky conditions: partly cloudy
Temperature: 41 F (5 C)
Dew Point: 24 F (-4 C)
Relative Humidity: 52%
Pressure (altimeter): 29.56 in. Hg (1001 hPa)
ob: SAWP 261530Z 29027G40KT 6000 SCT018 SCT022 05/M04 Q1001
cycle: 15

Station Type Date Time Source
SAWP TAF UTC NOAA

Error!

Example: see airport list